sensor_id;sensor_type;location;lat;lon;timestamp;P1;durP1;ratioP1;P2;durP2;ratioP2
85831;SDS011;76278;51.296;16.924;2024-03-29T00:00:33;7.72;;;3.08;;
85831;SDS011;76278;51.296;16.924;2024-03-29T00:02:59;8.95;;;3.33;;
85831;SDS011;76278;51.296;16.924;2024-03-29T00:05:24;9.20;;;3.75;;
85831;SDS011;76278;51.296;16.924;2024-03-29T00:07:50;14.27;;;5.30;;
85831;SDS011;76278;51.296;16.924;2024-03-29T00:10:15;11.13;;;4.93;;
85831;SDS011;76278;51.296;16.924;2024-03-29T00:12:41;9.75;;;4.30;;
85831;SDS011;76278;51.296;16.924;2024-03-29T00:15:06;8.00;;;2.90;;
85831;SDS011;76278;51.296;16.924;2024-03-29T00:17:32;5.22;;;1.70;;
85831;SDS011;76278;51.296;16.924;2024-03-29T00:19:57;6.22;;;2.22;;
85831;SDS011;76278;51.296;16.924;2024-03-29T00:22:23;5.70;;;1.95;;
85831;SDS011;76278;51.296;16.924;2024-03-29T00:24:48;6.28;;;2.17;;
85831;SDS011;76278;51.296;16.924;2024-03-29T00:27:13;5.97;;;2.33;;
85831;SDS011;76278;51.296;16.924;2024-03-29T00:29:39;8.07;;;2.20;;
85831;SDS011;76278;51.296;16.924;2024-03-29T00:32:04;9.75;;;2.70;;
85831;SDS011;76278;51.296;16.924;2024-03-29T00:34:30;8.50;;;2.78;;
85831;SDS011;76278;51.296;16.924;2024-03-29T00:36:56;9.93;;;2.90;;
85831;SDS011;76278;51.296;16.924;2024-03-29T00:39:21;8.10;;;2.40;;
85831;SDS011;76278;51.296;16.924;2024-03-29T00:41:47;7.78;;;2.22;;
85831;SDS011;76278;51.296;16.924;2024-03-29T00:44:12;8.55;;;3.08;;
85831;SDS011;76278;51.296;16.924;2024-03-29T00:46:38;7.05;;;2.40;;
85831;SDS011;76278;51.296;16.924;2024-03-29T00:49:03;5.67;;;2.23;;
85831;SDS011;76278;51.296;16.924;2024-03-29T00:51:28;6.90;;;2.55;;
85831;SDS011;76278;51.296;16.924;2024-03-29T00:53:54;7.50;;;3.25;;
85831;SDS011;76278;51.296;16.924;2024-03-29T00:56:20;7.15;;;3.33;;
85831;SDS011;76278;51.296;16.924;2024-03-29T00:58:45;8.02;;;3.15;;
85831;SDS011;76278;51.296;16.924;2024-03-29T01:01:11;6.72;;;2.60;;
85831;SDS011;76278;51.296;16.924;2024-03-29T01:03:36;6.72;;;2.67;;
85831;SDS011;76278;51.296;16.924;2024-03-29T01:06:01;7.95;;;3.00;;
85831;SDS011;76278;51.296;16.924;2024-03-29T01:08:27;6.57;;;2.55;;
85831;SDS011;76278;51.296;16.924;2024-03-29T01:10:53;5.93;;;2.70;;
85831;SDS011;76278;51.296;16.924;2024-03-29T01:13:18;5.45;;;2.28;;
85831;SDS011;76278;51.296;16.924;2024-03-29T01:15:44;8.40;;;2.83;;
85831;SDS011;76278;51.296;16.924;2024-03-29T01:18:10;6.72;;;2.47;;
85831;SDS011;76278;51.296;16.924;2024-03-29T01:20:35;6.35;;;2.08;;
85831;SDS011;76278;51.296;16.924;2024-03-29T01:23:01;6.38;;;2.55;;
85831;SDS011;76278;51.296;16.924;2024-03-29T01:25:26;6.28;;;2.08;;
85831;SDS011;76278;51.296;16.924;2024-03-29T01:27:52;7.57;;;2.90;;
85831;SDS011;76278;51.296;16.924;2024-03-29T01:30:18;8.35;;;3.10;;
85831;SDS011;76278;51.296;16.924;2024-03-29T01:32:44;8.25;;;3.70;;
85831;SDS011;76278;51.296;16.924;2024-03-29T01:35:09;8.55;;;3.95;;
85831;SDS011;76278;51.296;16.924;2024-03-29T01:37:34;7.28;;;3.40;;
85831;SDS011;76278;51.296;16.924;2024-03-29T01:40:01;8.68;;;4.05;;
85831;SDS011;76278;51.296;16.924;2024-03-29T01:42:26;9.27;;;4.40;;
85831;SDS011;76278;51.296;16.924;2024-03-29T01:44:52;11.02;;;4.30;;
85831;SDS011;76278;51.296;16.924;2024-03-29T01:47:17;8.82;;;4.22;;
85831;SDS011;76278;51.296;16.924;2024-03-29T01:49:43;8.63;;;4.13;;
85831;SDS011;76278;51.296;16.924;2024-03-29T01:52:10;11.23;;;4.93;;
85831;SDS011;76278;51.296;16.924;2024-03-29T01:54:36;11.65;;;5.50;;
85831;SDS011;76278;51.296;16.924;2024-03-29T01:57:01;19.20;;;7.53;;
85831;SDS011;76278;51.296;16.924;2024-03-29T01:59:27;17.65;;;7.80;;
85831;SDS011;76278;51.296;16.924;2024-03-29T02:01:53;24.02;;;9.85;;
85831;SDS011;76278;51.296;16.924;2024-03-29T02:04:19;33.58;;;11.60;;
85831;SDS011;76278;51.296;16.924;2024-03-29T02:06:44;46.72;;;16.45;;
85831;SDS011;76278;51.296;16.924;2024-03-29T02:09:10;53.80;;;16.48;;
85831;SDS011;76278;51.296;16.924;2024-03-29T02:11:35;49.50;;;14.93;;
85831;SDS011;76278;51.296;16.924;2024-03-29T02:14:00;30.70;;;10.85;;
85831;SDS011;76278;51.296;16.924;2024-03-29T02:16:26;68.18;;;20.67;;
85831;SDS011;76278;51.296;16.924;2024-03-29T02:18:51;73.18;;;21.92;;
85831;SDS011;76278;51.296;16.924;2024-03-29T02:21:17;76.35;;;24.08;;
85831;SDS011;76278;51.296;16.924;2024-03-29T02:23:43;31.05;;;11.73;;
85831;SDS011;76278;51.296;16.924;2024-03-29T02:26:10;46.83;;;16.58;;
85831;SDS011;76278;51.296;16.924;2024-03-29T02:28:36;44.65;;;16.35;;
85831;SDS011;76278;51.296;16.924;2024-03-29T02:31:01;37.47;;;15.10;;
85831;SDS011;76278;51.296;16.924;2024-03-29T02:33:27;63.13;;;23.15;;
85831;SDS011;76278;51.296;16.924;2024-03-29T02:35:53;55.28;;;21.17;;
85831;SDS011;76278;51.296;16.924;2024-03-29T02:38:18;31.77;;;12.60;;
85831;SDS011;76278;51.296;16.924;2024-03-29T02:40:44;21.80;;;8.87;;
85831;SDS011;76278;51.296;16.924;2024-03-29T02:43:09;15.15;;;5.68;;
85831;SDS011;76278;51.296;16.924;2024-03-29T02:45:34;30.17;;;11.48;;
85831;SDS011;76278;51.296;16.924;2024-03-29T02:48:01;34.08;;;12.63;;
85831;SDS011;76278;51.296;16.924;2024-03-29T02:50:26;17.87;;;7.77;;
85831;SDS011;76278;51.296;16.924;2024-03-29T02:52:51;21.23;;;9.02;;
85831;SDS011;76278;51.296;16.924;2024-03-29T02:55:17;31.87;;;12.87;;
85831;SDS011;76278;51.296;16.924;2024-03-29T02:57:42;29.55;;;11.52;;
85831;SDS011;76278;51.296;16.924;2024-03-29T03:00:07;22.25;;;8.48;;
85831;SDS011;76278;51.296;16.924;2024-03-29T03:02:39;14.15;;;6.65;;
85831;SDS011;76278;51.296;16.924;2024-03-29T03:05:05;16.92;;;7.32;;
85831;SDS011;76278;51.296;16.924;2024-03-29T03:07:31;16.95;;;7.60;;
85831;SDS011;76278;51.296;16.924;2024-03-29T03:10:15;24.55;;;10.80;;
85831;SDS011;76278;51.296;16.924;2024-03-29T03:12:59;17.25;;;7.70;;
85831;SDS011;76278;51.296;16.924;2024-03-29T03:15:24;20.73;;;8.63;;
85831;SDS011;76278;51.296;16.924;2024-03-29T03:17:50;26.05;;;10.30;;
85831;SDS011;76278;51.296;16.924;2024-03-29T03:20:15;25.63;;;10.20;;
85831;SDS011;76278;51.296;16.924;2024-03-29T03:22:41;33.50;;;12.00;;
85831;SDS011;76278;51.296;16.924;2024-03-29T03:25:07;24.92;;;10.35;;
85831;SDS011;76278;51.296;16.924;2024-03-29T03:27:32;25.27;;;8.88;;
85831;SDS011;76278;51.296;16.924;2024-03-29T03:29:57;17.58;;;7.25;;
85831;SDS011;76278;51.296;16.924;2024-03-29T03:32:23;13.35;;;5.95;;
85831;SDS011;76278;51.296;16.924;2024-03-29T03:34:48;13.65;;;6.00;;
85831;SDS011;76278;51.296;16.924;2024-03-29T03:37:13;12.55;;;5.90;;
85831;SDS011;76278;51.296;16.924;2024-03-29T03:39:39;12.93;;;5.27;;
85831;SDS011;76278;51.296;16.924;2024-03-29T03:42:04;10.23;;;4.18;;
85831;SDS011;76278;51.296;16.924;2024-03-29T03:44:30;8.75;;;4.60;;
85831;SDS011;76278;51.296;16.924;2024-03-29T03:46:55;7.10;;;3.93;;
85831;SDS011;76278;51.296;16.924;2024-03-29T03:49:20;7.47;;;3.88;;
85831;SDS011;76278;51.296;16.924;2024-03-29T03:51:46;7.28;;;3.92;;
85831;SDS011;76278;51.296;16.924;2024-03-29T03:54:11;10.93;;;5.32;;
85831;SDS011;76278;51.296;16.924;2024-03-29T03:56:36;9.27;;;4.95;;
85831;SDS011;76278;51.296;16.924;2024-03-29T03:59:02;10.43;;;4.60;;
85831;SDS011;76278;51.296;16.924;2024-03-29T04:01:27;8.05;;;4.63;;
85831;SDS011;76278;51.296;16.924;2024-03-29T04:03:52;9.70;;;4.47;;
85831;SDS011;76278;51.296;16.924;2024-03-29T04:06:18;7.82;;;4.45;;
85831;SDS011;76278;51.296;16.924;2024-03-29T04:08:44;7.93;;;4.27;;
85831;SDS011;76278;51.296;16.924;2024-03-29T04:11:09;9.43;;;5.25;;
85831;SDS011;76278;51.296;16.924;2024-03-29T04:13:35;8.10;;;4.68;;
85831;SDS011;76278;51.296;16.924;2024-03-29T04:16:04;8.20;;;3.92;;
85831;SDS011;76278;51.296;16.924;2024-03-29T04:18:31;9.10;;;4.50;;
85831;SDS011;76278;51.296;16.924;2024-03-29T04:20:57;9.40;;;4.32;;
85831;SDS011;76278;51.296;16.924;2024-03-29T04:23:23;7.35;;;4.10;;
85831;SDS011;76278;51.296;16.924;2024-03-29T04:25:54;9.13;;;4.60;;
85831;SDS011;76278;51.296;16.924;2024-03-29T04:28:23;10.30;;;4.45;;
85831;SDS011;76278;51.296;16.924;2024-03-29T04:30:52;10.18;;;4.78;;
85831;SDS011;76278;51.296;16.924;2024-03-29T04:33:21;8.05;;;4.57;;
85831;SDS011;76278;51.296;16.924;2024-03-29T04:38:31;8.98;;;4.30;;
85831;SDS011;76278;51.296;16.924;2024-03-29T04:40:57;9.15;;;4.10;;
85831;SDS011;76278;51.296;16.924;2024-03-29T04:43:26;7.63;;;4.13;;
85831;SDS011;76278;51.296;16.924;2024-03-29T04:48:47;7.90;;;3.90;;
85831;SDS011;76278;51.296;16.924;2024-03-29T04:51:12;7.77;;;4.27;;
85831;SDS011;76278;51.296;16.924;2024-03-29T04:53:39;7.78;;;3.50;;
85831;SDS011;76278;51.296;16.924;2024-03-29T04:56:04;7.47;;;3.42;;
85831;SDS011;76278;51.296;16.924;2024-03-29T04:58:30;7.80;;;3.83;;
85831;SDS011;76278;51.296;16.924;2024-03-29T05:00:56;7.00;;;3.55;;
85831;SDS011;76278;51.296;16.924;2024-03-29T05:03:21;8.68;;;4.15;;
85831;SDS011;76278;51.296;16.924;2024-03-29T05:05:48;10.93;;;5.47;;
85831;SDS011;76278;51.296;16.924;2024-03-29T05:08:16;14.13;;;8.40;;
85831;SDS011;76278;51.296;16.924;2024-03-29T05:10:43;11.55;;;7.55;;
85831;SDS011;76278;51.296;16.924;2024-03-29T05:13:08;20.05;;;11.95;;
85831;SDS011;76278;51.296;16.924;2024-03-29T05:15:34;29.17;;;13.40;;
85831;SDS011;76278;51.296;16.924;2024-03-29T05:17:59;24.23;;;11.00;;
85831;SDS011;76278;51.296;16.924;2024-03-29T05:20:24;18.40;;;7.80;;
85831;SDS011;76278;51.296;16.924;2024-03-29T05:22:50;11.82;;;4.75;;
85831;SDS011;76278;51.296;16.924;2024-03-29T05:25:15;8.20;;;4.22;;
85831;SDS011;76278;51.296;16.924;2024-03-29T05:27:40;7.30;;;3.42;;
85831;SDS011;76278;51.296;16.924;2024-03-29T05:30:06;8.77;;;3.50;;
85831;SDS011;76278;51.296;16.924;2024-03-29T05:32:32;7.85;;;3.95;;
85831;SDS011;76278;51.296;16.924;2024-03-29T05:34:57;9.60;;;3.63;;
85831;SDS011;76278;51.296;16.924;2024-03-29T05:37:23;8.13;;;3.37;;
85831;SDS011;76278;51.296;16.924;2024-03-29T05:39:50;7.32;;;3.30;;
85831;SDS011;76278;51.296;16.924;2024-03-29T05:42:25;5.93;;;2.60;;
85831;SDS011;76278;51.296;16.924;2024-03-29T05:44:51;6.55;;;2.70;;
85831;SDS011;76278;51.296;16.924;2024-03-29T05:47:16;5.97;;;2.60;;
85831;SDS011;76278;51.296;16.924;2024-03-29T05:49:42;6.47;;;2.80;;
85831;SDS011;76278;51.296;16.924;2024-03-29T05:52:07;7.53;;;2.60;;
85831;SDS011;76278;51.296;16.924;2024-03-29T05:54:32;7.30;;;3.42;;
85831;SDS011;76278;51.296;16.924;2024-03-29T05:56:58;8.23;;;3.67;;
85831;SDS011;76278;51.296;16.924;2024-03-29T05:59:23;7.47;;;2.97;;
85831;SDS011;76278;51.296;16.924;2024-03-29T06:01:48;6.70;;;2.90;;
85831;SDS011;76278;51.296;16.924;2024-03-29T06:04:14;6.97;;;2.78;;
85831;SDS011;76278;51.296;16.924;2024-03-29T06:06:43;6.65;;;2.75;;
85831;SDS011;76278;51.296;16.924;2024-03-29T06:09:09;7.43;;;2.83;;
85831;SDS011;76278;51.296;16.924;2024-03-29T06:11:34;5.50;;;2.55;;
85831;SDS011;76278;51.296;16.924;2024-03-29T06:14:00;6.97;;;2.42;;
85831;SDS011;76278;51.296;16.924;2024-03-29T06:16:25;6.33;;;2.47;;
85831;SDS011;76278;51.296;16.924;2024-03-29T06:19:11;6.38;;;2.25;;
85831;SDS011;76278;51.296;16.924;2024-03-29T06:21:36;6.82;;;2.75;;
85831;SDS011;76278;51.296;16.924;2024-03-29T06:24:09;7.72;;;2.00;;
85831;SDS011;76278;51.296;16.924;2024-03-29T06:26:38;5.55;;;2.00;;
85831;SDS011;76278;51.296;16.924;2024-03-29T06:29:04;5.40;;;2.10;;
85831;SDS011;76278;51.296;16.924;2024-03-29T06:31:29;6.07;;;2.25;;
85831;SDS011;76278;51.296;16.924;2024-03-29T06:33:55;5.65;;;1.75;;
85831;SDS011;76278;51.296;16.924;2024-03-29T06:36:22;5.60;;;1.85;;
85831;SDS011;76278;51.296;16.924;2024-03-29T06:38:48;5.47;;;1.98;;
85831;SDS011;76278;51.296;16.924;2024-03-29T06:41:14;5.78;;;1.90;;
85831;SDS011;76278;51.296;16.924;2024-03-29T06:43:42;4.30;;;1.33;;
85831;SDS011;76278;51.296;16.924;2024-03-29T06:46:11;4.32;;;1.75;;
85831;SDS011;76278;51.296;16.924;2024-03-29T06:48:36;5.30;;;1.77;;
85831;SDS011;76278;51.296;16.924;2024-03-29T06:51:03;6.40;;;1.98;;
85831;SDS011;76278;51.296;16.924;2024-03-29T06:53:29;5.05;;;1.70;;
85831;SDS011;76278;51.296;16.924;2024-03-29T06:55:55;5.22;;;1.60;;
85831;SDS011;76278;51.296;16.924;2024-03-29T06:58:21;8.70;;;1.60;;
85831;SDS011;76278;51.296;16.924;2024-03-29T07:00:47;8.70;;;2.45;;
85831;SDS011;76278;51.296;16.924;2024-03-29T07:03:14;7.32;;;1.98;;
85831;SDS011;76278;51.296;16.924;2024-03-29T07:05:40;4.40;;;1.60;;
85831;SDS011;76278;51.296;16.924;2024-03-29T07:08:06;4.53;;;1.40;;
85831;SDS011;76278;51.296;16.924;2024-03-29T07:10:31;4.60;;;1.58;;
85831;SDS011;76278;51.296;16.924;2024-03-29T07:12:56;5.13;;;1.58;;
85831;SDS011;76278;51.296;16.924;2024-03-29T07:15:22;6.07;;;1.50;;
85831;SDS011;76278;51.296;16.924;2024-03-29T07:17:47;5.13;;;1.40;;
85831;SDS011;76278;51.296;16.924;2024-03-29T07:20:15;6.55;;;1.77;;
85831;SDS011;76278;51.296;16.924;2024-03-29T07:22:40;6.43;;;1.85;;
85831;SDS011;76278;51.296;16.924;2024-03-29T07:25:06;4.60;;;1.63;;
85831;SDS011;76278;51.296;16.924;2024-03-29T07:27:31;6.35;;;1.88;;
85831;SDS011;76278;51.296;16.924;2024-03-29T07:30:00;6.78;;;1.90;;
85831;SDS011;76278;51.296;16.924;2024-03-29T07:32:25;10.18;;;2.95;;
85831;SDS011;76278;51.296;16.924;2024-03-29T07:34:51;4.03;;;1.25;;
85831;SDS011;76278;51.296;16.924;2024-03-29T07:37:16;5.80;;;1.45;;
85831;SDS011;76278;51.296;16.924;2024-03-29T07:39:43;5.70;;;1.70;;
85831;SDS011;76278;51.296;16.924;2024-03-29T07:42:08;5.03;;;1.40;;
85831;SDS011;76278;51.296;16.924;2024-03-29T07:44:34;3.83;;;1.10;;
85831;SDS011;76278;51.296;16.924;2024-03-29T07:46:59;5.38;;;1.40;;
85831;SDS011;76278;51.296;16.924;2024-03-29T07:49:24;4.45;;;1.58;;
85831;SDS011;76278;51.296;16.924;2024-03-29T07:51:50;4.27;;;1.00;;
85831;SDS011;76278;51.296;16.924;2024-03-29T07:54:15;5.47;;;1.40;;
85831;SDS011;76278;51.296;16.924;2024-03-29T07:56:41;6.25;;;1.65;;
85831;SDS011;76278;51.296;16.924;2024-03-29T07:59:06;9.50;;;1.73;;
85831;SDS011;76278;51.296;16.924;2024-03-29T08:01:31;5.67;;;1.50;;
85831;SDS011;76278;51.296;16.924;2024-03-29T08:03:57;8.18;;;1.60;;
85831;SDS011;76278;51.296;16.924;2024-03-29T08:06:22;6.07;;;1.52;;
85831;SDS011;76278;51.296;16.924;2024-03-29T08:08:48;5.35;;;1.50;;
85831;SDS011;76278;51.296;16.924;2024-03-29T08:11:16;4.80;;;1.55;;
85831;SDS011;76278;51.296;16.924;2024-03-29T08:13:42;8.85;;;1.90;;
85831;SDS011;76278;51.296;16.924;2024-03-29T08:16:08;6.57;;;1.55;;
85831;SDS011;76278;51.296;16.924;2024-03-29T08:18:34;5.90;;;1.40;;
85831;SDS011;76278;51.296;16.924;2024-03-29T08:20:59;4.93;;;1.33;;
85831;SDS011;76278;51.296;16.924;2024-03-29T08:23:25;6.25;;;1.50;;
85831;SDS011;76278;51.296;16.924;2024-03-29T08:25:51;4.38;;;1.30;;
85831;SDS011;76278;51.296;16.924;2024-03-29T08:28:20;9.73;;;2.28;;
85831;SDS011;76278;51.296;16.924;2024-03-29T08:30:45;8.07;;;1.55;;
85831;SDS011;76278;51.296;16.924;2024-03-29T08:33:11;5.22;;;1.20;;
85831;SDS011;76278;51.296;16.924;2024-03-29T08:35:37;4.10;;;1.15;;
85831;SDS011;76278;51.296;16.924;2024-03-29T08:38:02;3.47;;;1.02;;
85831;SDS011;76278;51.296;16.924;2024-03-29T08:40:28;5.32;;;1.17;;
85831;SDS011;76278;51.296;16.924;2024-03-29T08:42:56;4.45;;;1.13;;
85831;SDS011;76278;51.296;16.924;2024-03-29T08:45:21;6.40;;;1.30;;
85831;SDS011;76278;51.296;16.924;2024-03-29T08:47:47;15.15;;;2.47;;
85831;SDS011;76278;51.296;16.924;2024-03-29T08:50:12;4.70;;;1.20;;
85831;SDS011;76278;51.296;16.924;2024-03-29T08:52:39;5.13;;;1.25;;
85831;SDS011;76278;51.296;16.924;2024-03-29T08:55:05;6.82;;;1.10;;
85831;SDS011;76278;51.296;16.924;2024-03-29T08:57:31;4.13;;;1.40;;
85831;SDS011;76278;51.296;16.924;2024-03-29T08:59:56;6.22;;;1.15;;
85831;SDS011;76278;51.296;16.924;2024-03-29T09:02:21;6.95;;;1.50;;
85831;SDS011;76278;51.296;16.924;2024-03-29T09:04:47;6.30;;;1.27;;
85831;SDS011;76278;51.296;16.924;2024-03-29T09:07:12;5.57;;;1.15;;
85831;SDS011;76278;51.296;16.924;2024-03-29T09:09:37;5.15;;;1.13;;
85831;SDS011;76278;51.296;16.924;2024-03-29T09:12:06;4.25;;;1.00;;
85831;SDS011;76278;51.296;16.924;2024-03-29T09:14:32;6.03;;;1.15;;
85831;SDS011;76278;51.296;16.924;2024-03-29T09:16:58;4.30;;;1.08;;
85831;SDS011;76278;51.296;16.924;2024-03-29T09:19:23;3.65;;;1.05;;
85831;SDS011;76278;51.296;16.924;2024-03-29T09:21:49;4.10;;;1.00;;
85831;SDS011;76278;51.296;16.924;2024-03-29T09:24:15;5.38;;;1.25;;
85831;SDS011;76278;51.296;16.924;2024-03-29T09:26:42;4.18;;;1.20;;
85831;SDS011;76278;51.296;16.924;2024-03-29T09:29:07;2.78;;;0.70;;
85831;SDS011;76278;51.296;16.924;2024-03-29T09:31:33;7.18;;;1.20;;
85831;SDS011;76278;51.296;16.924;2024-03-29T09:33:59;4.30;;;1.00;;
85831;SDS011;76278;51.296;16.924;2024-03-29T09:36:24;3.63;;;1.00;;
85831;SDS011;76278;51.296;16.924;2024-03-29T09:38:50;5.20;;;0.95;;
85831;SDS011;76278;51.296;16.924;2024-03-29T09:41:16;3.08;;;0.82;;
85831;SDS011;76278;51.296;16.924;2024-03-29T09:43:44;4.88;;;1.02;;
85831;SDS011;76278;51.296;16.924;2024-03-29T09:46:10;3.47;;;1.00;;
85831;SDS011;76278;51.296;16.924;2024-03-29T09:48:37;4.70;;;1.10;;
85831;SDS011;76278;51.296;16.924;2024-03-29T09:51:06;5.25;;;1.55;;
85831;SDS011;76278;51.296;16.924;2024-03-29T09:53:35;4.95;;;1.30;;
85831;SDS011;76278;51.296;16.924;2024-03-29T09:56:05;4.15;;;1.02;;
85831;SDS011;76278;51.296;16.924;2024-03-29T09:58:31;3.95;;;0.90;;
85831;SDS011;76278;51.296;16.924;2024-03-29T10:00:57;4.85;;;0.90;;
85831;SDS011;76278;51.296;16.924;2024-03-29T10:03:23;4.57;;;1.02;;
85831;SDS011;76278;51.296;16.924;2024-03-29T10:05:56;3.33;;;0.80;;
85831;SDS011;76278;51.296;16.924;2024-03-29T10:08:22;3.15;;;0.88;;
85831;SDS011;76278;51.296;16.924;2024-03-29T10:10:48;4.97;;;1.15;;
85831;SDS011;76278;51.296;16.924;2024-03-29T10:13:14;4.93;;;1.10;;
85831;SDS011;76278;51.296;16.924;2024-03-29T10:15:39;5.17;;;0.90;;
85831;SDS011;76278;51.296;16.924;2024-03-29T10:18:09;3.25;;;0.98;;
85831;SDS011;76278;51.296;16.924;2024-03-29T10:20:35;3.75;;;0.93;;
85831;SDS011;76278;51.296;16.924;2024-03-29T10:23:01;3.93;;;0.90;;
85831;SDS011;76278;51.296;16.924;2024-03-29T10:25:31;3.70;;;0.80;;
85831;SDS011;76278;51.296;16.924;2024-03-29T10:27:57;5.00;;;0.90;;
85831;SDS011;76278;51.296;16.924;2024-03-29T10:30:24;3.72;;;0.90;;
85831;SDS011;76278;51.296;16.924;2024-03-29T10:32:50;3.45;;;0.80;;
85831;SDS011;76278;51.296;16.924;2024-03-29T10:35:15;5.20;;;1.00;;
85831;SDS011;76278;51.296;16.924;2024-03-29T10:37:41;6.53;;;0.90;;
85831;SDS011;76278;51.296;16.924;2024-03-29T10:40:08;3.50;;;0.80;;
85831;SDS011;76278;51.296;16.924;2024-03-29T10:42:37;6.88;;;1.10;;
85831;SDS011;76278;51.296;16.924;2024-03-29T10:45:03;4.70;;;0.90;;
85831;SDS011;76278;51.296;16.924;2024-03-29T10:47:30;2.78;;;0.85;;
85831;SDS011;76278;51.296;16.924;2024-03-29T10:49:57;2.97;;;0.75;;
85831;SDS011;76278;51.296;16.924;2024-03-29T10:52:24;5.00;;;1.25;;
85831;SDS011;76278;51.296;16.924;2024-03-29T10:54:50;7.10;;;1.30;;
85831;SDS011;76278;51.296;16.924;2024-03-29T10:57:19;5.35;;;1.10;;
85831;SDS011;76278;51.296;16.924;2024-03-29T11:00:08;3.80;;;0.90;;
85831;SDS011;76278;51.296;16.924;2024-03-29T11:05:28;3.35;;;1.15;;
85831;SDS011;76278;51.296;16.924;2024-03-29T11:15:42;5.13;;;0.90;;
85831;SDS011;76278;51.296;16.924;2024-03-29T11:18:10;3.53;;;0.80;;
85831;SDS011;76278;51.296;16.924;2024-03-29T11:20:35;3.80;;;0.60;;
85831;SDS011;76278;51.296;16.924;2024-03-29T11:23:12;5.40;;;0.70;;
85831;SDS011;76278;51.296;16.924;2024-03-29T11:28:09;6.68;;;1.17;;
85831;SDS011;76278;51.296;16.924;2024-03-29T11:30:41;5.35;;;1.15;;
85831;SDS011;76278;51.296;16.924;2024-03-29T11:33:07;4.47;;;1.10;;
85831;SDS011;76278;51.296;16.924;2024-03-29T11:35:33;3.90;;;0.90;;
85831;SDS011;76278;51.296;16.924;2024-03-29T11:37:58;2.80;;;0.60;;
85831;SDS011;76278;51.296;16.924;2024-03-29T11:40:29;4.82;;;0.90;;
85831;SDS011;76278;51.296;16.924;2024-03-29T11:42:55;4.45;;;0.90;;
85831;SDS011;76278;51.296;16.924;2024-03-29T11:45:20;6.20;;;0.90;;
85831;SDS011;76278;51.296;16.924;2024-03-29T11:47:48;5.55;;;1.42;;
85831;SDS011;76278;51.296;16.924;2024-03-29T11:52:41;3.80;;;0.90;;
85831;SDS011;76278;51.296;16.924;2024-03-29T11:55:06;6.65;;;0.90;;
85831;SDS011;76278;51.296;16.924;2024-03-29T11:57:32;22.42;;;2.33;;
85831;SDS011;76278;51.296;16.924;2024-03-29T11:59:57;8.70;;;1.13;;
85831;SDS011;76278;51.296;16.924;2024-03-29T12:02:23;3.60;;;0.90;;
85831;SDS011;76278;51.296;16.924;2024-03-29T12:04:48;4.18;;;1.02;;
85831;SDS011;76278;51.296;16.924;2024-03-29T12:07:14;7.78;;;1.23;;
85831;SDS011;76278;51.296;16.924;2024-03-29T12:09:40;5.78;;;1.60;;
85831;SDS011;76278;51.296;16.924;2024-03-29T12:12:05;12.93;;;1.40;;
85831;SDS011;76278;51.296;16.924;2024-03-29T12:14:34;6.85;;;1.40;;
85831;SDS011;76278;51.296;16.924;2024-03-29T12:17:02;5.35;;;1.00;;
85831;SDS011;76278;51.296;16.924;2024-03-29T12:19:34;5.85;;;1.25;;
85831;SDS011;76278;51.296;16.924;2024-03-29T12:22:03;5.38;;;1.30;;
85831;SDS011;76278;51.296;16.924;2024-03-29T12:24:28;4.13;;;0.95;;
85831;SDS011;76278;51.296;16.924;2024-03-29T12:26:54;6.25;;;1.23;;
85831;SDS011;76278;51.296;16.924;2024-03-29T12:29:20;7.78;;;1.30;;
85831;SDS011;76278;51.296;16.924;2024-03-29T12:31:55;4.57;;;1.00;;
85831;SDS011;76278;51.296;16.924;2024-03-29T12:34:24;23.05;;;3.00;;
85831;SDS011;76278;51.296;16.924;2024-03-29T12:36:49;9.65;;;1.67;;
85831;SDS011;76278;51.296;16.924;2024-03-29T12:39:15;4.55;;;0.90;;
85831;SDS011;76278;51.296;16.924;2024-03-29T12:41:42;4.18;;;0.98;;
85831;SDS011;76278;51.296;16.924;2024-03-29T12:44:09;3.25;;;0.90;;
85831;SDS011;76278;51.296;16.924;2024-03-29T12:46:35;3.35;;;0.90;;
85831;SDS011;76278;51.296;16.924;2024-03-29T12:49:02;5.55;;;1.20;;
85831;SDS011;76278;51.296;16.924;2024-03-29T12:51:27;6.20;;;1.25;;
85831;SDS011;76278;51.296;16.924;2024-03-29T12:53:54;2.97;;;0.70;;
85831;SDS011;76278;51.296;16.924;2024-03-29T12:56:20;3.50;;;0.90;;
85831;SDS011;76278;51.296;16.924;2024-03-29T12:58:46;2.88;;;1.00;;
85831;SDS011;76278;51.296;16.924;2024-03-29T13:01:11;3.45;;;1.00;;
85831;SDS011;76278;51.296;16.924;2024-03-29T13:03:37;2.80;;;0.95;;
85831;SDS011;76278;51.296;16.924;2024-03-29T13:06:03;8.93;;;1.13;;
85831;SDS011;76278;51.296;16.924;2024-03-29T13:08:28;7.50;;;1.05;;
85831;SDS011;76278;51.296;16.924;2024-03-29T13:10:54;5.03;;;1.27;;
85831;SDS011;76278;51.296;16.924;2024-03-29T13:13:20;5.22;;;0.95;;
85831;SDS011;76278;51.296;16.924;2024-03-29T13:15:45;3.97;;;0.90;;
85831;SDS011;76278;51.296;16.924;2024-03-29T13:18:12;6.72;;;1.10;;
85831;SDS011;76278;51.296;16.924;2024-03-29T13:20:41;6.05;;;1.60;;
85831;SDS011;76278;51.296;16.924;2024-03-29T13:23:07;3.88;;;1.08;;
85831;SDS011;76278;51.296;16.924;2024-03-29T13:25:33;4.07;;;1.05;;
85831;SDS011;76278;51.296;16.924;2024-03-29T13:27:58;4.30;;;0.90;;
85831;SDS011;76278;51.296;16.924;2024-03-29T13:30:25;4.83;;;0.90;;
85831;SDS011;76278;51.296;16.924;2024-03-29T13:32:52;3.30;;;0.90;;
85831;SDS011;76278;51.296;16.924;2024-03-29T13:35:18;6.85;;;1.95;;
85831;SDS011;76278;51.296;16.924;2024-03-29T13:37:46;3.72;;;1.10;;
85831;SDS011;76278;51.296;16.924;2024-03-29T13:40:13;4.88;;;1.30;;
85831;SDS011;76278;51.296;16.924;2024-03-29T13:42:42;4.57;;;1.13;;
85831;SDS011;76278;51.296;16.924;2024-03-29T13:45:08;6.10;;;1.20;;
85831;SDS011;76278;51.296;16.924;2024-03-29T13:47:37;6.13;;;1.50;;
85831;SDS011;76278;51.296;16.924;2024-03-29T13:50:04;4.15;;;1.23;;
85831;SDS011;76278;51.296;16.924;2024-03-29T13:52:30;6.68;;;1.40;;
85831;SDS011;76278;51.296;16.924;2024-03-29T13:54:56;11.13;;;2.30;;
85831;SDS011;76278;51.296;16.924;2024-03-29T13:57:21;6.22;;;1.50;;
85831;SDS011;76278;51.296;16.924;2024-03-29T13:59:47;4.05;;;1.30;;
85831;SDS011;76278;51.296;16.924;2024-03-29T14:02:13;6.63;;;2.03;;
85831;SDS011;76278;51.296;16.924;2024-03-29T14:04:40;13.32;;;3.47;;
85831;SDS011;76278;51.296;16.924;2024-03-29T14:07:06;6.43;;;1.40;;
85831;SDS011;76278;51.296;16.924;2024-03-29T14:09:36;5.53;;;1.25;;
85831;SDS011;76278;51.296;16.924;2024-03-29T14:12:02;3.10;;;0.90;;
85831;SDS011;76278;51.296;16.924;2024-03-29T14:14:28;4.30;;;0.93;;
85831;SDS011;76278;51.296;16.924;2024-03-29T14:16:54;5.30;;;1.23;;
85831;SDS011;76278;51.296;16.924;2024-03-29T14:19:19;7.97;;;1.30;;
85831;SDS011;76278;51.296;16.924;2024-03-29T14:21:45;8.18;;;1.70;;
85831;SDS011;76278;51.296;16.924;2024-03-29T14:24:10;5.15;;;1.10;;
85831;SDS011;76278;51.296;16.924;2024-03-29T14:26:35;4.13;;;1.00;;
85831;SDS011;76278;51.296;16.924;2024-03-29T14:29:01;5.07;;;1.00;;
85831;SDS011;76278;51.296;16.924;2024-03-29T14:31:26;4.47;;;1.20;;
85831;SDS011;76278;51.296;16.924;2024-03-29T14:33:52;4.20;;;1.02;;
85831;SDS011;76278;51.296;16.924;2024-03-29T14:36:17;5.33;;;1.40;;
85831;SDS011;76278;51.296;16.924;2024-03-29T14:38:44;10.40;;;2.08;;
85831;SDS011;76278;51.296;16.924;2024-03-29T14:41:09;7.78;;;1.83;;
85831;SDS011;76278;51.296;16.924;2024-03-29T14:43:35;6.00;;;1.23;;
85831;SDS011;76278;51.296;16.924;2024-03-29T14:46:01;5.57;;;1.45;;